sensor_id;sensor_type;location;lat;lon;timestamp;P1;durP1;ratioP1;P2;durP2;ratioP2
21233;SDS011;10774;42.178;26.578;2022-08-19T00:01:30;7.00;;;6.30;;
21233;SDS011;10774;42.178;26.578;2022-08-19T00:03:57;7.90;;;6.50;;
21233;SDS011;10774;42.178;26.578;2022-08-19T00:06:24;8.57;;;6.88;;
21233;SDS011;10774;42.178;26.578;2022-08-19T00:08:50;9.82;;;6.38;;
21233;SDS011;10774;42.178;26.578;2022-08-19T00:11:16;7.22;;;6.53;;
21233;SDS011;10774;42.178;26.578;2022-08-19T00:13:42;9.07;;;7.47;;
21233;SDS011;10774;42.178;26.578;2022-08-19T00:16:07;8.55;;;7.53;;
21233;SDS011;10774;42.178;26.578;2022-08-19T00:18:33;8.38;;;7.43;;
21233;SDS011;10774;42.178;26.578;2022-08-19T00:20:59;7.43;;;6.68;;
21233;SDS011;10774;42.178;26.578;2022-08-19T00:23:24;7.43;;;6.68;;
21233;SDS011;10774;42.178;26.578;2022-08-19T00:25:51;8.88;;;7.55;;
21233;SDS011;10774;42.178;26.578;2022-08-19T00:28:17;10.82;;;6.80;;
21233;SDS011;10774;42.178;26.578;2022-08-19T00:30:43;8.23;;;7.28;;
21233;SDS011;10774;42.178;26.578;2022-08-19T00:33:09;8.10;;;6.40;;
21233;SDS011;10774;42.178;26.578;2022-08-19T00:35:34;7.65;;;6.45;;
21233;SDS011;10774;42.178;26.578;2022-08-19T00:38:00;7.68;;;6.80;;
21233;SDS011;10774;42.178;26.578;2022-08-19T00:40:25;8.48;;;7.30;;
21233;SDS011;10774;42.178;26.578;2022-08-19T00:42:51;8.98;;;6.60;;
21233;SDS011;10774;42.178;26.578;2022-08-19T00:45:19;10.75;;;7.00;;
21233;SDS011;10774;42.178;26.578;2022-08-19T00:47:46;9.18;;;7.10;;
21233;SDS011;10774;42.178;26.578;2022-08-19T00:50:15;12.73;;;7.63;;
21233;SDS011;10774;42.178;26.578;2022-08-19T00:52:44;8.25;;;7.38;;
21233;SDS011;10774;42.178;26.578;2022-08-19T00:55:17;8.45;;;6.75;;
21233;SDS011;10774;42.178;26.578;2022-08-19T00:57:47;7.85;;;7.00;;
21233;SDS011;10774;42.178;26.578;2022-08-19T01:00:17;11.30;;;7.10;;
21233;SDS011;10774;42.178;26.578;2022-08-19T01:02:44;9.30;;;7.13;;
21233;SDS011;10774;42.178;26.578;2022-08-19T01:05:11;10.60;;;7.15;;
21233;SDS011;10774;42.178;26.578;2022-08-19T01:07:40;12.18;;;7.28;;
21233;SDS011;10774;42.178;26.578;2022-08-19T01:10:07;9.13;;;6.88;;
21233;SDS011;10774;42.178;26.578;2022-08-19T01:12:36;9.85;;;6.88;;
21233;SDS011;10774;42.178;26.578;2022-08-19T01:15:03;9.10;;;6.50;;
21233;SDS011;10774;42.178;26.578;2022-08-19T01:17:31;10.52;;;7.07;;
21233;SDS011;10774;42.178;26.578;2022-08-19T01:19:56;9.25;;;6.97;;
21233;SDS011;10774;42.178;26.578;2022-08-19T01:24:48;7.88;;;6.80;;
21233;SDS011;10774;42.178;26.578;2022-08-19T01:27:14;8.32;;;6.93;;
21233;SDS011;10774;42.178;26.578;2022-08-19T01:29:40;12.70;;;7.05;;
21233;SDS011;10774;42.178;26.578;2022-08-19T01:32:09;12.18;;;7.50;;
21233;SDS011;10774;42.178;26.578;2022-08-19T01:34:37;14.05;;;7.05;;
21233;SDS011;10774;42.178;26.578;2022-08-19T01:37:07;8.75;;;6.68;;
21233;SDS011;10774;42.178;26.578;2022-08-19T01:39:36;8.82;;;6.70;;
21233;SDS011;10774;42.178;26.578;2022-08-19T01:42:03;9.32;;;6.50;;
21233;SDS011;10774;42.178;26.578;2022-08-19T01:44:30;7.50;;;6.80;;
21233;SDS011;10774;42.178;26.578;2022-08-19T01:46:55;9.00;;;6.97;;
21233;SDS011;10774;42.178;26.578;2022-08-19T01:49:22;7.68;;;6.75;;
21233;SDS011;10774;42.178;26.578;2022-08-19T01:51:50;7.63;;;6.90;;
21233;SDS011;10774;42.178;26.578;2022-08-19T01:54:17;8.95;;;7.00;;
21233;SDS011;10774;42.178;26.578;2022-08-19T01:56:43;9.23;;;7.00;;
21233;SDS011;10774;42.178;26.578;2022-08-19T01:59:13;10.43;;;7.40;;
21233;SDS011;10774;42.178;26.578;2022-08-19T02:01:41;7.60;;;6.63;;
21233;SDS011;10774;42.178;26.578;2022-08-19T02:04:07;10.40;;;7.18;;
21233;SDS011;10774;42.178;26.578;2022-08-19T02:06:33;8.68;;;7.25;;
21233;SDS011;10774;42.178;26.578;2022-08-19T02:08:59;16.15;;;7.80;;
21233;SDS011;10774;42.178;26.578;2022-08-19T02:11:25;8.02;;;7.22;;
21233;SDS011;10774;42.178;26.578;2022-08-19T02:13:56;9.20;;;7.25;;
21233;SDS011;10774;42.178;26.578;2022-08-19T02:16:22;10.52;;;7.65;;
21233;SDS011;10774;42.178;26.578;2022-08-19T02:18:49;11.57;;;7.70;;
21233;SDS011;10774;42.178;26.578;2022-08-19T02:21:16;10.80;;;7.50;;
21233;SDS011;10774;42.178;26.578;2022-08-19T02:23:43;8.57;;;7.70;;
21233;SDS011;10774;42.178;26.578;2022-08-19T02:26:09;12.32;;;7.15;;
21233;SDS011;10774;42.178;26.578;2022-08-19T02:28:35;12.82;;;7.93;;
21233;SDS011;10774;42.178;26.578;2022-08-19T02:31:01;8.43;;;7.22;;
21233;SDS011;10774;42.178;26.578;2022-08-19T02:33:28;12.35;;;7.68;;
21233;SDS011;10774;42.178;26.578;2022-08-19T02:35:54;9.95;;;7.70;;
21233;SDS011;10774;42.178;26.578;2022-08-19T02:38:19;8.35;;;7.22;;
21233;SDS011;10774;42.178;26.578;2022-08-19T02:40:52;9.57;;;7.72;;
21233;SDS011;10774;42.178;26.578;2022-08-19T02:43:20;17.45;;;8.63;;
21233;SDS011;10774;42.178;26.578;2022-08-19T02:45:46;12.52;;;8.95;;
21233;SDS011;10774;42.178;26.578;2022-08-19T02:48:14;14.00;;;8.82;;
21233;SDS011;10774;42.178;26.578;2022-08-19T02:50:42;9.13;;;8.23;;
21233;SDS011;10774;42.178;26.578;2022-08-19T02:53:08;9.50;;;8.60;;
21233;SDS011;10774;42.178;26.578;2022-08-19T02:55:33;12.02;;;8.77;;
21233;SDS011;10774;42.178;26.578;2022-08-19T02:58:00;10.48;;;9.05;;
21233;SDS011;10774;42.178;26.578;2022-08-19T03:00:25;10.25;;;8.88;;
21233;SDS011;10774;42.178;26.578;2022-08-19T03:02:51;11.32;;;8.70;;
21233;SDS011;10774;42.178;26.578;2022-08-19T03:05:17;12.25;;;8.75;;
21233;SDS011;10774;42.178;26.578;2022-08-19T03:07:43;11.40;;;9.00;;
21233;SDS011;10774;42.178;26.578;2022-08-19T03:10:08;9.45;;;8.50;;
21233;SDS011;10774;42.178;26.578;2022-08-19T03:12:35;11.73;;;8.45;;
21233;SDS011;10774;42.178;26.578;2022-08-19T03:15:03;12.93;;;8.68;;
21233;SDS011;10774;42.178;26.578;2022-08-19T03:17:32;11.55;;;8.68;;
21233;SDS011;10774;42.178;26.578;2022-08-19T03:19:58;15.55;;;8.27;;
21233;SDS011;10774;42.178;26.578;2022-08-19T03:22:23;11.18;;;8.43;;
21233;SDS011;10774;42.178;26.578;2022-08-19T03:24:50;12.18;;;9.68;;
21233;SDS011;10774;42.178;26.578;2022-08-19T03:27:15;11.25;;;9.23;;
21233;SDS011;10774;42.178;26.578;2022-08-19T03:29:42;11.68;;;8.40;;
21233;SDS011;10774;42.178;26.578;2022-08-19T03:32:09;14.40;;;8.40;;
21233;SDS011;10774;42.178;26.578;2022-08-19T03:34:36;14.15;;;9.10;;
21233;SDS011;10774;42.178;26.578;2022-08-19T03:37:04;10.80;;;8.20;;
21233;SDS011;10774;42.178;26.578;2022-08-19T03:39:32;11.93;;;9.27;;
21233;SDS011;10774;42.178;26.578;2022-08-19T03:41:58;12.40;;;9.05;;
21233;SDS011;10774;42.178;26.578;2022-08-19T03:44:27;12.43;;;8.90;;
21233;SDS011;10774;42.178;26.578;2022-08-19T03:46:55;14.27;;;8.93;;
21233;SDS011;10774;42.178;26.578;2022-08-19T03:49:22;9.07;;;8.00;;
21233;SDS011;10774;42.178;26.578;2022-08-19T03:51:50;10.32;;;8.50;;
21233;SDS011;10774;42.178;26.578;2022-08-19T03:54:19;13.32;;;8.32;;
21233;SDS011;10774;42.178;26.578;2022-08-19T03:56:48;10.30;;;8.05;;
21233;SDS011;10774;42.178;26.578;2022-08-19T03:59:17;10.65;;;8.38;;
21233;SDS011;10774;42.178;26.578;2022-08-19T04:01:55;10.85;;;8.45;;
21233;SDS011;10774;42.178;26.578;2022-08-19T04:04:23;12.93;;;9.20;;
21233;SDS011;10774;42.178;26.578;2022-08-19T04:06:49;10.63;;;9.27;;
21233;SDS011;10774;42.178;26.578;2022-08-19T04:09:16;14.48;;;9.23;;
21233;SDS011;10774;42.178;26.578;2022-08-19T04:11:46;11.00;;;9.07;;
21233;SDS011;10774;42.178;26.578;2022-08-19T04:14:18;10.35;;;8.98;;
21233;SDS011;10774;42.178;26.578;2022-08-19T04:16:45;13.07;;;9.35;;
21233;SDS011;10774;42.178;26.578;2022-08-19T04:19:12;12.40;;;10.05;;
21233;SDS011;10774;42.178;26.578;2022-08-19T04:21:39;11.00;;;9.30;;
21233;SDS011;10774;42.178;26.578;2022-08-19T04:24:04;17.15;;;9.77;;
21233;SDS011;10774;42.178;26.578;2022-08-19T04:26:32;12.32;;;9.75;;
21233;SDS011;10774;42.178;26.578;2022-08-19T04:29:01;10.93;;;9.82;;
21233;SDS011;10774;42.178;26.578;2022-08-19T04:31:31;10.57;;;9.35;;
21233;SDS011;10774;42.178;26.578;2022-08-19T04:34:01;13.13;;;8.88;;
21233;SDS011;10774;42.178;26.578;2022-08-19T04:36:30;13.15;;;9.38;;
21233;SDS011;10774;42.178;26.578;2022-08-19T04:39:04;11.95;;;9.07;;
21233;SDS011;10774;42.178;26.578;2022-08-19T04:41:32;14.57;;;10.77;;
21233;SDS011;10774;42.178;26.578;2022-08-19T04:44:17;11.73;;;10.52;;
21233;SDS011;10774;42.178;26.578;2022-08-19T04:46:44;22.15;;;14.63;;
21233;SDS011;10774;42.178;26.578;2022-08-19T04:49:11;24.15;;;21.58;;
21233;SDS011;10774;42.178;26.578;2022-08-19T04:51:39;21.38;;;12.57;;
21233;SDS011;10774;42.178;26.578;2022-08-19T04:54:06;12.05;;;9.45;;
21233;SDS011;10774;42.178;26.578;2022-08-19T04:56:31;11.93;;;9.93;;
21233;SDS011;10774;42.178;26.578;2022-08-19T04:58:57;13.40;;;9.13;;
21233;SDS011;10774;42.178;26.578;2022-08-19T05:01:28;11.38;;;9.00;;
21233;SDS011;10774;42.178;26.578;2022-08-19T05:03:55;12.68;;;9.45;;
21233;SDS011;10774;42.178;26.578;2022-08-19T05:06:22;9.90;;;8.90;;
21233;SDS011;10774;42.178;26.578;2022-08-19T05:08:47;14.10;;;8.98;;
21233;SDS011;10774;42.178;26.578;2022-08-19T05:11:17;11.23;;;9.32;;
21233;SDS011;10774;42.178;26.578;2022-08-19T05:13:48;22.75;;;9.98;;
21233;SDS011;10774;42.178;26.578;2022-08-19T05:16:15;12.93;;;9.27;;
21233;SDS011;10774;42.178;26.578;2022-08-19T05:18:43;15.38;;;9.93;;
21233;SDS011;10774;42.178;26.578;2022-08-19T05:21:27;13.70;;;8.85;;
21233;SDS011;10774;42.178;26.578;2022-08-19T05:24:13;11.27;;;9.80;;
21233;SDS011;10774;42.178;26.578;2022-08-19T05:26:40;13.00;;;9.30;;
21233;SDS011;10774;42.178;26.578;2022-08-19T05:29:11;15.35;;;10.32;;
21233;SDS011;10774;42.178;26.578;2022-08-19T05:31:38;13.63;;;9.50;;
21233;SDS011;10774;42.178;26.578;2022-08-19T05:34:04;12.18;;;10.15;;
21233;SDS011;10774;42.178;26.578;2022-08-19T05:36:33;13.20;;;8.93;;
21233;SDS011;10774;42.178;26.578;2022-08-19T05:39:02;18.30;;;9.63;;
21233;SDS011;10774;42.178;26.578;2022-08-19T05:41:29;24.75;;;9.82;;
21233;SDS011;10774;42.178;26.578;2022-08-19T05:44:00;13.18;;;9.82;;
21233;SDS011;10774;42.178;26.578;2022-08-19T05:46:27;11.00;;;9.20;;
21233;SDS011;10774;42.178;26.578;2022-08-19T05:48:53;11.68;;;9.10;;
21233;SDS011;10774;42.178;26.578;2022-08-19T05:51:21;13.50;;;9.45;;
21233;SDS011;10774;42.178;26.578;2022-08-19T05:53:48;20.38;;;9.77;;
21233;SDS011;10774;42.178;26.578;2022-08-19T05:56:14;14.00;;;9.38;;
21233;SDS011;10774;42.178;26.578;2022-08-19T05:58:41;13.93;;;9.25;;
21233;SDS011;10774;42.178;26.578;2022-08-19T06:01:09;16.50;;;9.07;;
21233;SDS011;10774;42.178;26.578;2022-08-19T06:03:36;13.85;;;9.27;;
21233;SDS011;10774;42.178;26.578;2022-08-19T06:06:03;14.10;;;8.52;;
21233;SDS011;10774;42.178;26.578;2022-08-19T06:08:29;13.52;;;8.43;;
21233;SDS011;10774;42.178;26.578;2022-08-19T06:10:54;10.77;;;8.75;;
21233;SDS011;10774;42.178;26.578;2022-08-19T06:13:21;14.93;;;8.10;;
21233;SDS011;10774;42.178;26.578;2022-08-19T06:15:48;17.75;;;8.88;;
21233;SDS011;10774;42.178;26.578;2022-08-19T06:18:14;20.83;;;9.60;;
21233;SDS011;10774;42.178;26.578;2022-08-19T06:20:40;20.42;;;8.95;;
21233;SDS011;10774;42.178;26.578;2022-08-19T06:23:06;16.42;;;8.90;;
21233;SDS011;10774;42.178;26.578;2022-08-19T06:25:33;15.70;;;8.70;;
21233;SDS011;10774;42.178;26.578;2022-08-19T06:27:58;19.42;;;9.20;;
21233;SDS011;10774;42.178;26.578;2022-08-19T06:30:24;16.67;;;8.50;;
21233;SDS011;10774;42.178;26.578;2022-08-19T06:32:49;14.52;;;8.18;;
21233;SDS011;10774;42.178;26.578;2022-08-19T06:35:15;14.95;;;8.18;;
21233;SDS011;10774;42.178;26.578;2022-08-19T06:37:40;13.23;;;8.50;;
21233;SDS011;10774;42.178;26.578;2022-08-19T06:40:06;13.43;;;7.32;;
21233;SDS011;10774;42.178;26.578;2022-08-19T06:42:37;10.70;;;7.72;;
21233;SDS011;10774;42.178;26.578;2022-08-19T06:45:05;11.50;;;6.47;;
21233;SDS011;10774;42.178;26.578;2022-08-19T06:47:33;9.00;;;6.18;;
21233;SDS011;10774;42.178;26.578;2022-08-19T06:49:59;9.13;;;5.80;;
21233;SDS011;10774;42.178;26.578;2022-08-19T06:52:29;12.30;;;6.18;;
21233;SDS011;10774;42.178;26.578;2022-08-19T06:54:55;9.98;;;6.88;;
21233;SDS011;10774;42.178;26.578;2022-08-19T06:57:21;7.88;;;5.82;;
21233;SDS011;10774;42.178;26.578;2022-08-19T06:59:48;11.55;;;6.60;;
21233;SDS011;10774;42.178;26.578;2022-08-19T07:02:13;9.23;;;6.53;;
21233;SDS011;10774;42.178;26.578;2022-08-19T07:04:39;10.52;;;5.53;;
21233;SDS011;10774;42.178;26.578;2022-08-19T07:07:08;18.50;;;6.50;;
21233;SDS011;10774;42.178;26.578;2022-08-19T07:09:37;10.18;;;6.93;;
21233;SDS011;10774;42.178;26.578;2022-08-19T07:12:05;13.80;;;5.95;;
21233;SDS011;10774;42.178;26.578;2022-08-19T07:14:32;11.27;;;5.32;;
21233;SDS011;10774;42.178;26.578;2022-08-19T07:17:01;9.27;;;5.63;;
21233;SDS011;10774;42.178;26.578;2022-08-19T07:19:28;11.80;;;5.28;;
21233;SDS011;10774;42.178;26.578;2022-08-19T07:21:54;8.55;;;6.22;;
21233;SDS011;10774;42.178;26.578;2022-08-19T07:24:22;8.43;;;5.38;;
21233;SDS011;10774;42.178;26.578;2022-08-19T07:26:50;6.95;;;5.13;;
21233;SDS011;10774;42.178;26.578;2022-08-19T07:29:17;7.80;;;5.13;;
21233;SDS011;10774;42.178;26.578;2022-08-19T07:31:43;7.10;;;5.22;;
21233;SDS011;10774;42.178;26.578;2022-08-19T07:34:09;9.40;;;5.60;;
21233;SDS011;10774;42.178;26.578;2022-08-19T07:36:38;8.15;;;5.30;;
21233;SDS011;10774;42.178;26.578;2022-08-19T07:39:07;6.13;;;5.10;;
21233;SDS011;10774;42.178;26.578;2022-08-19T07:41:35;8.48;;;4.82;;
21233;SDS011;10774;42.178;26.578;2022-08-19T07:44:02;11.20;;;5.10;;
21233;SDS011;10774;42.178;26.578;2022-08-19T07:46:30;7.72;;;5.15;;
21233;SDS011;10774;42.178;26.578;2022-08-19T07:48:57;11.15;;;8.82;;
21233;SDS011;10774;42.178;26.578;2022-08-19T07:51:23;9.23;;;4.72;;
21233;SDS011;10774;42.178;26.578;2022-08-19T07:53:49;9.15;;;5.05;;
21233;SDS011;10774;42.178;26.578;2022-08-19T07:56:18;7.43;;;4.57;;
21233;SDS011;10774;42.178;26.578;2022-08-19T07:58:45;8.73;;;5.05;;
21233;SDS011;10774;42.178;26.578;2022-08-19T08:01:17;7.63;;;4.20;;
21233;SDS011;10774;42.178;26.578;2022-08-19T08:03:45;11.68;;;4.95;;
21233;SDS011;10774;42.178;26.578;2022-08-19T08:06:30;7.00;;;4.85;;
21233;SDS011;10774;42.178;26.578;2022-08-19T08:09:16;6.20;;;4.93;;
21233;SDS011;10774;42.178;26.578;2022-08-19T08:11:48;6.30;;;4.60;;
21233;SDS011;10774;42.178;26.578;2022-08-19T08:14:31;5.75;;;4.65;;
21233;SDS011;10774;42.178;26.578;2022-08-19T08:17:04;11.40;;;4.88;;
21233;SDS011;10774;42.178;26.578;2022-08-19T08:19:30;7.45;;;4.95;;
21233;SDS011;10774;42.178;26.578;2022-08-19T08:21:57;8.90;;;4.88;;
21233;SDS011;10774;42.178;26.578;2022-08-19T08:24:24;8.07;;;4.82;;
21233;SDS011;10774;42.178;26.578;2022-08-19T08:26:50;7.50;;;4.75;;
21233;SDS011;10774;42.178;26.578;2022-08-19T08:29:16;8.00;;;4.40;;
21233;SDS011;10774;42.178;26.578;2022-08-19T08:31:43;6.95;;;4.85;;
21233;SDS011;10774;42.178;26.578;2022-08-19T08:34:10;7.95;;;4.30;;
21233;SDS011;10774;42.178;26.578;2022-08-19T08:36:41;6.15;;;4.45;;
21233;SDS011;10774;42.178;26.578;2022-08-19T08:39:11;5.93;;;5.00;;
21233;SDS011;10774;42.178;26.578;2022-08-19T08:44:23;6.85;;;4.60;;
21233;SDS011;10774;42.178;26.578;2022-08-19T08:46:58;5.05;;;4.13;;
21233;SDS011;10774;42.178;26.578;2022-08-19T08:54:47;6.65;;;4.55;;
21233;SDS011;10774;42.178;26.578;2022-08-19T08:57:17;7.60;;;4.22;;
21233;SDS011;10774;42.178;26.578;2022-08-19T08:59:48;14.65;;;5.10;;
21233;SDS011;10774;42.178;26.578;2022-08-19T09:02:18;8.73;;;5.13;;
21233;SDS011;10774;42.178;26.578;2022-08-19T09:04:43;6.20;;;3.95;;
21233;SDS011;10774;42.178;26.578;2022-08-19T09:09:40;6.35;;;4.07;;
21233;SDS011;10774;42.178;26.578;2022-08-19T09:17:18;6.15;;;4.20;;
21233;SDS011;10774;42.178;26.578;2022-08-19T09:22:18;5.68;;;4.28;;
21233;SDS011;10774;42.178;26.578;2022-08-19T09:24:47;5.55;;;3.95;;
21233;SDS011;10774;42.178;26.578;2022-08-19T09:27:14;6.07;;;5.07;;
21233;SDS011;10774;42.178;26.578;2022-08-19T09:29:39;9.40;;;4.30;;
21233;SDS011;10774;42.178;26.578;2022-08-19T09:32:05;8.55;;;4.88;;
21233;SDS011;10774;42.178;26.578;2022-08-19T09:34:31;7.13;;;3.80;;
21233;SDS011;10774;42.178;26.578;2022-08-19T09:36:57;6.05;;;3.00;;
21233;SDS011;10774;42.178;26.578;2022-08-19T09:39:25;7.20;;;3.67;;
21233;SDS011;10774;42.178;26.578;2022-08-19T09:41:51;5.05;;;3.40;;
21233;SDS011;10774;42.178;26.578;2022-08-19T09:44:17;10.23;;;3.55;;
21233;SDS011;10774;42.178;26.578;2022-08-19T09:46:45;6.97;;;3.63;;
21233;SDS011;10774;42.178;26.578;2022-08-19T09:49:16;6.40;;;3.30;;
21233;SDS011;10774;42.178;26.578;2022-08-19T09:51:43;6.90;;;4.05;;
21233;SDS011;10774;42.178;26.578;2022-08-19T09:54:08;3.20;;;2.90;;
21233;SDS011;10774;42.178;26.578;2022-08-19T09:56:34;15.45;;;4.75;;
21233;SDS011;10774;42.178;26.578;2022-08-19T09:59:00;5.85;;;3.85;;
21233;SDS011;10774;42.178;26.578;2022-08-19T10:01:29;4.80;;;3.47;;
21233;SDS011;10774;42.178;26.578;2022-08-19T10:03:57;5.63;;;3.60;;
21233;SDS011;10774;42.178;26.578;2022-08-19T10:06:25;7.03;;;3.58;;
21233;SDS011;10774;42.178;26.578;2022-08-19T10:08:54;9.20;;;3.70;;
21233;SDS011;10774;42.178;26.578;2022-08-19T10:11:20;5.93;;;3.42;;
21233;SDS011;10774;42.178;26.578;2022-08-19T10:13:45;7.45;;;4.00;;
21233;SDS011;10774;42.178;26.578;2022-08-19T10:16:12;6.18;;;3.30;;
21233;SDS011;10774;42.178;26.578;2022-08-19T10:18:41;8.20;;;3.22;;
21233;SDS011;10774;42.178;26.578;2022-08-19T10:21:10;3.30;;;3.00;;
21233;SDS011;10774;42.178;26.578;2022-08-19T10:23:39;4.93;;;3.53;;
21233;SDS011;10774;42.178;26.578;2022-08-19T10:26:10;5.07;;;3.35;;
21233;SDS011;10774;42.178;26.578;2022-08-19T10:28:40;6.97;;;3.90;;
21233;SDS011;10774;42.178;26.578;2022-08-19T10:31:07;8.68;;;3.33;;
21233;SDS011;10774;42.178;26.578;2022-08-19T10:33:35;8.30;;;4.13;;
21233;SDS011;10774;42.178;26.578;2022-08-19T10:36:13;5.05;;;2.90;;
21233;SDS011;10774;42.178;26.578;2022-08-19T10:38:40;5.75;;;3.25;;
21233;SDS011;10774;42.178;26.578;2022-08-19T10:41:22;8.82;;;3.45;;
21233;SDS011;10774;42.178;26.578;2022-08-19T10:43:53;6.05;;;3.45;;
21233;SDS011;10774;42.178;26.578;2022-08-19T10:46:19;7.68;;;3.72;;
21233;SDS011;10774;42.178;26.578;2022-08-19T10:48:47;8.18;;;4.18;;
21233;SDS011;10774;42.178;26.578;2022-08-19T10:51:13;8.50;;;4.15;;
21233;SDS011;10774;42.178;26.578;2022-08-19T10:53:58;6.53;;;3.20;;
21233;SDS011;10774;42.178;26.578;2022-08-19T10:56:25;7.40;;;3.67;;
21233;SDS011;10774;42.178;26.578;2022-08-19T10:59:10;10.23;;;4.60;;
21233;SDS011;10774;42.178;26.578;2022-08-19T11:01:37;5.80;;;4.13;;
21233;SDS011;10774;42.178;26.578;2022-08-19T11:04:03;6.78;;;3.35;;
21233;SDS011;10774;42.178;26.578;2022-08-19T11:06:32;6.65;;;3.40;;
21233;SDS011;10774;42.178;26.578;2022-08-19T11:08:58;11.75;;;3.72;;
21233;SDS011;10774;42.178;26.578;2022-08-19T11:11:25;10.82;;;3.60;;
21233;SDS011;10774;42.178;26.578;2022-08-19T11:13:51;5.28;;;3.78;;
21233;SDS011;10774;42.178;26.578;2022-08-19T11:16:21;4.90;;;3.85;;
21233;SDS011;10774;42.178;26.578;2022-08-19T11:18:49;8.98;;;3.80;;
21233;SDS011;10774;42.178;26.578;2022-08-19T11:21:18;6.57;;;3.92;;
21233;SDS011;10774;42.178;26.578;2022-08-19T11:23:47;4.15;;;3.05;;
21233;SDS011;10774;42.178;26.578;2022-08-19T11:26:15;7.20;;;3.28;;
21233;SDS011;10774;42.178;26.578;2022-08-19T11:28:41;6.15;;;3.25;;
21233;SDS011;10774;42.178;26.578;2022-08-19T11:31:11;5.82;;;3.83;;
21233;SDS011;10774;42.178;26.578;2022-08-19T11:33:37;6.25;;;4.00;;
21233;SDS011;10774;42.178;26.578;2022-08-19T11:36:03;7.00;;;3.55;;
21233;SDS011;10774;42.178;26.578;2022-08-19T11:38:29;4.57;;;3.13;;
21233;SDS011;10774;42.178;26.578;2022-08-19T11:40:58;7.57;;;3.45;;
21233;SDS011;10774;42.178;26.578;2022-08-19T11:43:26;4.55;;;3.60;;
21233;SDS011;10774;42.178;26.578;2022-08-19T11:45:53;5.30;;;3.70;;
21233;SDS011;10774;42.178;26.578;2022-08-19T11:48:20;4.15;;;3.40;;
21233;SDS011;10774;42.178;26.578;2022-08-19T11:50:49;7.32;;;3.78;;
21233;SDS011;10774;42.178;26.578;2022-08-19T11:53:15;7.75;;;3.92;;
21233;SDS011;10774;42.178;26.578;2022-08-19T11:55:45;7.32;;;4.10;;
21233;SDS011;10774;42.178;26.578;2022-08-19T11:58:12;6.70;;;3.97;;
21233;SDS011;10774;42.178;26.578;2022-08-19T12:00:39;8.68;;;3.90;;
21233;SDS011;10774;42.178;26.578;2022-08-19T12:03:05;4.22;;;3.70;;
21233;SDS011;10774;42.178;26.578;2022-08-19T12:05:31;6.35;;;3.63;;
21233;SDS011;10774;42.178;26.578;2022-08-19T12:07:57;10.65;;;3.92;;
21233;SDS011;10774;42.178;26.578;2022-08-19T12:10:23;8.10;;;4.00;;
21233;SDS011;10774;42.178;26.578;2022-08-19T12:12:49;9.43;;;3.78;;
21233;SDS011;10774;42.178;26.578;2022-08-19T12:15:15;19.65;;;4.45;;
21233;SDS011;10774;42.178;26.578;2022-08-19T12:17:41;7.93;;;3.75;;
21233;SDS011;10774;42.178;26.578;2022-08-19T12:20:08;9.18;;;4.30;;
21233;SDS011;10774;42.178;26.578;2022-08-19T12:22:38;6.80;;;3.58;;
21233;SDS011;10774;42.178;26.578;2022-08-19T12:25:06;9.48;;;5.63;;
21233;SDS011;10774;42.178;26.578;2022-08-19T12:27:32;9.02;;;3.72;;
21233;SDS011;10774;42.178;26.578;2022-08-19T12:29:58;8.13;;;3.25;;
21233;SDS011;10774;42.178;26.578;2022-08-19T12:32:26;5.18;;;3.70;;
21233;SDS011;10774;42.178;26.578;2022-08-19T12:34:52;4.63;;;3.40;;
21233;SDS011;10774;42.178;26.578;2022-08-19T12:37:18;3.80;;;3.00;;
21233;SDS011;10774;42.178;26.578;2022-08-19T12:39:43;5.50;;;3.40;;
21233;SDS011;10774;42.178;26.578;2022-08-19T12:42:12;6.03;;;3.47;;
21233;SDS011;10774;42.178;26.578;2022-08-19T12:44:39;6.53;;;3.47;;
21233;SDS011;10774;42.178;26.578;2022-08-19T12:47:06;7.35;;;2.78;;
21233;SDS011;10774;42.178;26.578;2022-08-19T12:49:33;4.63;;;2.80;;
21233;SDS011;10774;42.178;26.578;2022-08-19T12:51:59;5.97;;;3.30;;
21233;SDS011;10774;42.178;26.578;2022-08-19T12:54:26;5.70;;;3.50;;
21233;SDS011;10774;42.178;26.578;2022-08-19T12:56:55;8.23;;;3.60;;
21233;SDS011;10774;42.178;26.578;2022-08-19T12:59:21;5.72;;;3.28;;
21233;SDS011;10774;42.178;26.578;2022-08-19T13:01:47;5.10;;;3.38;;
21233;SDS011;10774;42.178;26.578;2022-08-19T13:04:12;8.02;;;3.33;;
21233;SDS011;10774;42.178;26.578;2022-08-19T13:06:38;5.88;;;3.60;;
21233;SDS011;10774;42.178;26.578;2022-08-19T13:09:04;9.23;;;3.60;;
21233;SDS011;10774;42.178;26.578;2022-08-19T13:11:31;4.63;;;2.85;;
21233;SDS011;10774;42.178;26.578;2022-08-19T13:13:58;5.20;;;3.50;;
21233;SDS011;10774;42.178;26.578;2022-08-19T13:16:25;5.30;;;3.60;;
21233;SDS011;10774;42.178;26.578;2022-08-19T13:18:53;5.97;;;3.35;;
21233;SDS011;10774;42.178;26.578;2022-08-19T13:21:20;6.80;;;3.70;;
21233;SDS011;10774;42.178;26.578;2022-08-19T13:23:48;11.02;;;4.60;;
21233;SDS011;10774;42.178;26.578;2022-08-19T13:26:14;7.65;;;3.50;;
21233;SDS011;10774;42.178;26.578;2022-08-19T13:28:40;6.43;;;3.55;;
21233;SDS011;10774;42.178;26.578;2022-08-19T13:34:10;6.88;;;3.63;;
21233;SDS011;10774;42.178;26.578;2022-08-19T13:36:35;4.70;;;3.60;;
21233;SDS011;10774;42.178;26.578;2022-08-19T13:39:02;6.70;;;3.70;;
21233;SDS011;10774;42.178;26.578;2022-08-19T13:41:29;8.40;;;3.63;;
21233;SDS011;10774;42.178;26.578;2022-08-19T13:43:55;5.88;;;4.43;;
21233;SDS011;10774;42.178;26.578;2022-08-19T13:46:21;10.65;;;3.92;;
21233;SDS011;10774;42.178;26.578;2022-08-19T13:48:47;9.20;;;6.13;;
21233;SDS011;10774;42.178;26.578;2022-08-19T13:51:13;11.02;;;6.55;;
21233;SDS011;10774;42.178;26.578;2022-08-19T13:53:41;9.30;;;3.97;;
21233;SDS011;10774;42.178;26.578;2022-08-19T13:56:12;7.03;;;4.57;;
21233;SDS011;10774;42.178;26.578;2022-08-19T13:58:39;7.97;;;3.65;;
21233;SDS011;10774;42.178;26.578;2022-08-19T14:01:05;6.25;;;3.50;;
21233;SDS011;10774;42.178;26.578;2022-08-19T14:03:31;9.13;;;3.58;;
21233;SDS011;10774;42.178;26.578;2022-08-19T14:05:58;6.57;;;3.30;;
21233;SDS011;10774;42.178;26.578;2022-08-19T14:08:24;6.05;;;3.58;;
21233;SDS011;10774;42.178;26.578;2022-08-19T14:10:52;6.85;;;3.42;;
21233;SDS011;10774;42.178;26.578;2022-08-19T14:13:19;4.68;;;3.30;;
21233;SDS011;10774;42.178;26.578;2022-08-19T14:15:48;9.05;;;5.10;;
21233;SDS011;10774;42.178;26.578;2022-08-19T14:18:15;8.30;;;3.13;;
21233;SDS011;10774;42.178;26.578;2022-08-19T14:20:42;9.15;;;3.45;;
21233;SDS011;10774;42.178;26.578;2022-08-19T14:23:07;5.65;;;3.78;;
21233;SDS011;10774;42.178;26.578;2022-08-19T14:25:33;7.13;;;3.88;;
21233;SDS011;10774;42.178;26.578;2022-08-19T14:27:59;5.10;;;4.00;;
21233;SDS011;10774;42.178;26.578;2022-08-19T14:30:27;7.10;;;4.20;;
21233;SDS011;10774;42.178;26.578;2022-08-19T14:32:55;11.70;;;4.63;;
21233;SDS011;10774;42.178;26.578;2022-08-19T14:35:23;9.32;;;4.20;;
21233;SDS011;10774;42.178;26.578;2022-08-19T14:37:49;6.60;;;3.92;;
21233;SDS011;10774;42.178;26.578;2022-08-19T14:40:20;9.75;;;3.90;;
21233;SDS011;10774;42.178;26.578;2022-08-19T14:42:51;7.97;;;3.17;;
21233;SDS011;10774;42.178;26.578;2022-08-19T14:45:24;10.18;;;4.18;;
21233;SDS011;10774;42.178;26.578;2022-08-19T14:47:50;9.60;;;3.85;;
21233;SDS011;10774;42.178;26.578;2022-08-19T14:50:16;11.10;;;3.40;;
21233;SDS011;10774;42.178;26.578;2022-08-19T14:52:42;6.82;;;3.50;;
21233;SDS011;10774;42.178;26.578;2022-08-19T14:55:08;7.35;;;3.75;;